Terskol, Russia
Current Conditions -  °F | °C
As of 3:00 PM on Sunday 21 Dec 2014 (Local Time) from URMN Reporting Station
Broken Clouds Broken Clouds  
Wind Chill: 50°   Ceiling: 26000
Heat Index: 50°   Visibility: 6mi
Dew Point: 36°   Wind: 0mph
Humidity: 58%   Direction: NA
Pressure: 29.97"   Gusts: NA
Location:  43.26°N, 42.53°E
Report Text: URMN 211200Z 00000MPS 9999 SCT100 BKN260 10/02 Q1015 NOSIG RMKQFE724 SC07
Loading
Personal Weather Stations






























Interactive Weather Map New forecast layout! Learn more

10-Day Weather Forecast

Advertisements
Track Severe Weather on mobile